createdAt,value
2023-05-19T00:10:40.550Z,2.30
2023-05-19T00:25:42.068Z,2.10
2023-05-19T00:40:43.577Z,2.10
2023-05-19T00:55:45.081Z,2.20
2023-05-19T01:10:46.565Z,2.20
2023-05-19T01:25:48.075Z,1.90
2023-05-19T01:40:49.628Z,1.90
2023-05-19T01:55:51.149Z,2.30
2023-05-19T02:10:52.655Z,2.00
2023-05-19T02:25:54.172Z,2.00
2023-05-19T02:40:55.677Z,1.97
2023-05-19T02:55:57.169Z,1.83
2023-05-19T03:10:58.686Z,1.90
2023-05-19T03:26:00.201Z,1.80
2023-05-19T03:41:01.707Z,1.60
2023-05-19T03:56:03.219Z,1.50
2023-05-19T04:11:04.757Z,1.63
2023-05-19T04:26:06.273Z,1.80
2023-05-19T04:41:07.782Z,1.63
2023-05-19T04:56:09.267Z,1.50
2023-05-19T05:11:10.760Z,1.47
2023-05-19T05:26:12.253Z,1.40
2023-05-19T05:41:13.749Z,1.33
2023-05-19T05:56:15.287Z,1.30
2023-05-19T06:11:16.815Z,1.70
2023-05-19T06:26:18.314Z,1.77
2023-05-19T06:41:19.865Z,1.80
2023-05-19T06:56:21.565Z,2.03
2023-05-19T07:11:23.096Z,1.40
2023-05-19T07:26:24.593Z,1.60
2023-05-19T07:41:26.147Z,1.80
2023-05-19T07:56:27.686Z,1.60
2023-05-19T08:11:29.189Z,1.67
2023-05-19T08:26:30.696Z,1.70
2023-05-19T08:41:32.235Z,1.50
2023-05-19T08:56:33.713Z,1.60
2023-05-19T09:11:35.225Z,1.53
2023-05-19T09:26:36.740Z,1.57
2023-05-19T09:41:38.233Z,1.60
2023-05-19T09:56:39.918Z,1.40
2023-05-19T10:11:41.428Z,2.10
2023-05-19T10:26:42.930Z,1.50
2023-05-19T10:41:45.128Z,1.93
2023-05-19T10:56:47.927Z,1.63
2023-05-19T11:11:49.507Z,2.00
2023-05-19T11:26:51.022Z,1.47
2023-05-19T11:41:52.520Z,1.50
2023-05-19T11:56:54.015Z,1.57
2023-05-19T12:11:55.534Z,1.50
2023-05-19T12:26:57.048Z,1.90
2023-05-19T12:41:58.555Z,1.83
2023-05-19T12:57:00.052Z,1.80
2023-05-19T13:12:01.615Z,1.70
2023-05-19T13:27:03.134Z,2.10
2023-05-19T13:42:04.638Z,1.87
2023-05-19T13:57:06.204Z,2.20
2023-05-19T14:12:08.865Z,2.13
2023-05-19T14:27:10.356Z,1.80
2023-05-19T14:42:11.857Z,2.13
2023-05-19T14:57:13.403Z,1.90
2023-05-19T15:12:15.140Z,1.70
2023-05-19T15:27:16.661Z,2.20
2023-05-19T15:42:18.173Z,2.20
2023-05-19T15:57:19.669Z,2.03
2023-05-19T16:12:21.184Z,1.97
2023-05-19T16:27:22.689Z,2.10
2023-05-19T16:42:24.192Z,2.10
2023-05-19T16:57:25.700Z,2.00
2023-05-19T17:12:27.220Z,2.10
2023-05-19T17:27:28.747Z,2.13
2023-05-19T17:42:30.235Z,2.03
2023-05-19T17:57:31.766Z,2.00
2023-05-19T18:12:33.273Z,2.00
2023-05-19T18:27:34.768Z,2.17
2023-05-19T18:42:36.266Z,2.33
2023-05-19T18:57:37.768Z,2.50
2023-05-19T19:12:39.251Z,3.63
2023-05-19T19:27:40.746Z,3.07
2023-05-19T19:42:42.241Z,2.53
2023-05-19T19:57:43.744Z,2.10
2023-05-19T20:12:45.252Z,2.20
2023-05-19T20:27:46.764Z,2.33
2023-05-19T20:42:48.271Z,2.10
2023-05-19T20:57:49.770Z,2.10
2023-05-19T21:12:51.262Z,2.00
2023-05-19T21:27:52.765Z,1.80
2023-05-19T21:42:54.298Z,1.60
2023-05-19T21:57:55.819Z,1.90
2023-05-19T22:12:57.325Z,1.80
2023-05-19T22:27:58.834Z,2.00
2023-05-19T22:43:00.328Z,2.00
2023-05-19T22:58:01.824Z,2.03
2023-05-19T23:13:03.368Z,1.90
2023-05-19T23:28:04.862Z,1.80
2023-05-19T23:43:06.460Z,1.60
2023-05-19T23:58:07.964Z,1.60
